Time;durP1;ratioP1;P1;durP2;ratioP2;P2;SDS_P1;SDS_P2;PMS_P1;PMS_P2;Temp;Humidity;BMP_temperature;BMP_pressure;BME280_temperature;BME280_humidity;BME280_pressure;Samples;Min_cycle;Max_cycle;Signal;HPM_P1;HPM_P2
2023/12/16 00:02:19;;;;;;;0.50;0.50;;;11.70;70.40;;;;;;5081997;28;20034;-69
2023/12/16 00:04:44;;;;;;;0.40;0.40;;;11.60;70.50;;;;;;5087269;28;20055;-70
2023/12/16 00:07:10;;;;;;;2.70;1.42;;;11.60;70.50;;;;;;5068515;28;20024;-70
2023/12/16 00:09:36;;;;;;;0.60;0.60;;;11.60;70.40;;;;;;5091453;28;20379;-68
2023/12/16 00:12:02;;;;;;;0.60;0.60;;;11.60;70.40;;;;;;5090768;28;20096;-69
2023/12/16 00:14:28;;;;;;;0.80;0.80;;;11.60;70.50;;;;;;5089183;28;20490;-70
2023/12/16 00:16:53;;;;;;;0.68;0.68;;;11.60;70.40;;;;;;5079082;28;20024;-70
2023/12/16 00:19:19;;;;;;;0.50;0.50;;;11.50;70.30;;;;;;5087610;28;20158;-70
2023/12/16 00:21:44;;;;;;;0.73;0.73;;;11.50;70.20;;;;;;5071085;28;20029;-70
2023/12/16 00:24:10;;;;;;;0.40;0.40;;;11.50;70.20;;;;;;5079357;28;20040;-70
2023/12/16 00:26:35;;;;;;;1.10;1.00;;;11.50;70.20;;;;;;5091357;28;20036;-70
2023/12/16 00:29:01;;;;;;;1.45;1.35;;;11.40;70.10;;;;;;5091069;28;20032;-70
2023/12/16 00:31:27;;;;;;;1.23;1.17;;;11.40;70.00;;;;;;5085163;28;20028;-71
2023/12/16 00:33:53;;;;;;;0.40;0.40;;;11.40;70.10;;;;;;5078884;28;20486;-69
2023/12/16 00:36:18;;;;;;;0.77;0.77;;;11.50;70.20;;;;;;5074979;28;20099;-69
2023/12/16 00:38:44;;;;;;;1.27;1.17;;;11.40;70.20;;;;;;5074954;28;20029;-67
2023/12/16 00:41:09;;;;;;;0.63;0.63;;;11.40;70.10;;;;;;5063146;28;20475;-71
2023/12/16 00:43:35;;;;;;;0.40;0.40;;;11.40;70.10;;;;;;5085396;28;20028;-71
2023/12/16 00:46:01;;;;;;;0.80;0.80;;;11.40;70.10;;;;;;5085437;28;20033;-72
2023/12/16 00:48:26;;;;;;;1.00;1.00;;;11.40;70.20;;;;;;5073392;28;20489;-72
2023/12/16 00:50:52;;;;;;;1.15;1.02;;;11.40;70.40;;;;;;5103424;28;20090;-71
2023/12/16 00:53:17;;;;;;;1.33;1.05;;;11.40;70.50;;;;;;5103062;28;20418;-71
2023/12/16 00:55:43;;;;;;;0.45;0.45;;;11.40;70.50;;;;;;5103164;28;20044;-72
2023/12/16 00:58:08;;;;;;;0.50;0.50;;;11.50;70.60;;;;;;5103440;28;20051;-72
2023/12/16 01:00:34;;;;;;;1.48;1.38;;;11.50;70.60;;;;;;5100278;28;20036;-72
2023/12/16 01:02:59;;;;;;;0.50;0.50;;;11.50;70.60;;;;;;5101196;28;20028;-71
2023/12/16 01:05:26;;;;;;;0.55;0.55;;;11.50;70.50;;;;;;5100709;28;20055;-71
2023/12/16 01:07:51;;;;;;;1.15;1.15;;;11.60;70.60;;;;;;5082218;28;20046;-71
2023/12/16 01:10:17;;;;;;;0.50;0.50;;;11.60;70.70;;;;;;5100796;28;20024;-71
2023/12/16 01:12:43;;;;;;;1.08;1.02;;;11.60;70.70;;;;;;5100934;28;20030;-71
2023/12/16 01:15:08;;;;;;;7.13;2.05;;;11.60;70.70;;;;;;5100783;28;20028;-71
2023/12/16 01:17:34;;;;;;;0.50;0.50;;;11.60;70.50;;;;;;5100886;28;20032;-71
2023/12/16 01:19:59;;;;;;;0.50;0.50;;;11.60;70.60;;;;;;5100460;28;20031;-71
2023/12/16 01:22:25;;;;;;;0.60;0.60;;;11.70;70.60;;;;;;5101228;28;20035;-72
2023/12/16 01:24:50;;;;;;;0.50;0.50;;;11.60;70.60;;;;;;5082022;28;20432;-72
2023/12/16 01:27:16;;;;;;;0.50;0.50;;;11.70;70.60;;;;;;5100933;28;20044;-72
2023/12/16 01:29:41;;;;;;;0.60;0.60;;;11.60;70.60;;;;;;5101120;28;20039;-72
2023/12/16 01:32:07;;;;;;;0.60;0.60;;;11.70;70.60;;;;;;5101222;28;20036;-71
2023/12/16 01:34:33;;;;;;;0.70;0.70;;;11.70;70.60;;;;;;5101127;28;20530;-71
2023/12/16 01:36:59;;;;;;;0.50;0.50;;;11.60;70.60;;;;;;5101999;28;20020;-71
2023/12/16 01:39:24;;;;;;;0.73;0.73;;;11.70;70.40;;;;;;5082921;28;20028;-71
2023/12/16 01:41:50;;;;;;;0.57;0.57;;;11.70;70.60;;;;;;5101317;28;20036;-72
2023/12/16 01:44:16;;;;;;;0.70;0.70;;;11.70;70.40;;;;;;5102190;28;20020;-71
2023/12/16 01:46:42;;;;;;;0.40;0.40;;;11.60;70.30;;;;;;5097306;28;20514;-70
2023/12/16 01:49:08;;;;;;;0.52;0.52;;;11.70;70.40;;;;;;5104530;28;20032;-72
2023/12/16 01:51:34;;;;;;;0.50;0.50;;;11.60;70.30;;;;;;5104954;28;20032;-72
2023/12/16 01:54:00;;;;;;;0.55;0.55;;;11.60;70.30;;;;;;5087405;28;20054;-72
2023/12/16 01:56:28;;;;;;;0.50;0.50;;;11.60;70.30;;;;;;5105024;28;20067;-72
2023/12/16 01:58:54;;;;;;;0.50;0.50;;;11.60;70.30;;;;;;5086406;28;20024;-72
2023/12/16 02:01:20;;;;;;;1.15;1.10;;;11.60;70.40;;;;;;5102539;28;20032;-72
2023/12/16 02:03:47;;;;;;;0.40;0.40;;;11.70;70.20;;;;;;5104278;28;20023;-72
2023/12/16 02:06:14;;;;;;;0.50;0.50;;;11.60;70.30;;;;;;5104154;28;20031;-70
2023/12/16 02:08:39;;;;;;;0.57;0.57;;;11.60;70.50;;;;;;5104242;28;20438;-72
2023/12/16 02:11:09;;;;;;;0.60;0.60;;;11.70;70.40;;;;;;5103651;28;20036;-71
2023/12/16 02:13:39;;;;;;;1.27;0.85;;;11.70;70.50;;;;;;5089601;28;20025;-72
2023/12/16 02:16:05;;;;;;;0.40;0.40;;;11.70;70.60;;;;;;5083978;28;20068;-71
2023/12/16 02:18:31;;;;;;;1.48;1.38;;;11.70;70.60;;;;;;5083135;28;20028;-73
2023/12/16 02:20:56;;;;;;;0.40;0.40;;;11.70;70.50;;;;;;5082797;28;20029;-72
2023/12/16 02:23:22;;;;;;;0.52;0.52;;;11.70;70.50;;;;;;5082524;28;20054;-72
2023/12/16 02:25:47;;;;;;;0.60;0.60;;;11.70;70.50;;;;;;5082374;28;20491;-72
2023/12/16 02:28:13;;;;;;;0.50;0.50;;;11.70;70.30;;;;;;5082597;28;20033;-72
2023/12/16 02:30:39;;;;;;;0.90;0.90;;;11.70;70.40;;;;;;5082004;28;20051;-71
2023/12/16 02:33:04;;;;;;;0.40;0.40;;;11.70;70.20;;;;;;5081787;28;20365;-71
2023/12/16 02:35:30;;;;;;;0.50;0.50;;;11.70;70.10;;;;;;5082979;28;20386;-71
2023/12/16 02:37:55;;;;;;;0.45;0.45;;;11.70;70.00;;;;;;5082071;28;20024;-71
2023/12/16 02:40:21;;;;;;;0.60;0.60;;;11.70;70.00;;;;;;5083063;28;20025;-71
2023/12/16 02:42:46;;;;;;;0.60;0.60;;;11.70;69.80;;;;;;5083365;28;20048;-71
2023/12/16 02:45:12;;;;;;;0.40;0.40;;;11.70;70.10;;;;;;5083007;28;20088;-72
2023/12/16 02:47:37;;;;;;;0.52;0.52;;;11.70;70.40;;;;;;5083999;28;20084;-71
2023/12/16 02:50:06;;;;;;;0.65;0.65;;;11.70;70.20;;;;;;5083177;28;20036;-72
2023/12/16 02:52:31;;;;;;;0.50;0.50;;;11.70;70.20;;;;;;5083575;28;20043;-72
2023/12/16 02:54:57;;;;;;;0.80;0.80;;;11.70;70.40;;;;;;5083303;28;20053;-71
2023/12/16 02:57:22;;;;;;;0.50;0.50;;;11.70;70.40;;;;;;5081986;28;20039;-72
2023/12/16 02:59:48;;;;;;;0.60;0.60;;;11.70;70.30;;;;;;5084336;28;20037;-69
2023/12/16 03:02:13;;;;;;;0.40;0.40;;;11.70;70.40;;;;;;5072176;28;20043;-69
2023/12/16 03:04:39;;;;;;;0.55;0.55;;;11.80;70.40;;;;;;5072229;28;20108;-69
2023/12/16 03:07:04;;;;;;;0.60;0.60;;;11.80;70.10;;;;;;5072635;28;20033;-70
2023/12/16 03:09:30;;;;;;;0.55;0.55;;;11.70;70.30;;;;;;5072102;28;20052;-69
2023/12/16 03:11:55;;;;;;;0.65;0.65;;;11.70;70.30;;;;;;5072554;28;20132;-71
2023/12/16 03:14:21;;;;;;;2.25;1.65;;;11.70;70.10;;;;;;5092476;28;20028;-69
2023/12/16 03:16:47;;;;;;;0.60;0.60;;;11.70;70.20;;;;;;5092505;28;20036;-70
2023/12/16 03:19:12;;;;;;;0.60;0.60;;;11.70;70.20;;;;;;5092213;28;20537;-70
2023/12/16 03:21:39;;;;;;;0.50;0.50;;;11.70;69.90;;;;;;5092503;28;20490;-69
2023/12/16 03:24:05;;;;;;;0.60;0.60;;;11.70;70.20;;;;;;5092150;28;20032;-71
2023/12/16 03:26:30;;;;;;;2.70;1.17;;;11.70;70.20;;;;;;5092435;28;20526;-69
2023/12/16 03:28:56;;;;;;;0.60;0.60;;;11.70;69.80;;;;;;5092328;28;20051;-69
2023/12/16 03:31:21;;;;;;;0.50;0.50;;;11.70;69.70;;;;;;5092171;28;20040;-68
2023/12/16 03:33:47;;;;;;;0.50;0.50;;;11.70;69.90;;;;;;5091775;28;20024;-68
2023/12/16 03:36:13;;;;;;;0.82;0.82;;;11.70;69.80;;;;;;5092091;28;20105;-69
2023/12/16 03:38:41;;;;;;;0.70;0.70;;;11.70;70.10;;;;;;5091818;28;20471;-69
2023/12/16 03:41:07;;;;;;;0.50;0.50;;;11.70;70.20;;;;;;5092052;28;20422;-69
2023/12/16 03:43:32;;;;;;;0.85;0.85;;;11.70;70.20;;;;;;5092244;28;20074;-69
2023/12/16 03:45:58;;;;;;;0.60;0.60;;;11.70;70.20;;;;;;5092067;28;20036;-68
2023/12/16 03:48:24;;;;;;;0.50;0.50;;;11.70;70.20;;;;;;5091631;28;20028;-68
2023/12/16 03:50:49;;;;;;;0.43;0.43;;;11.70;70.30;;;;;;5091734;28;20117;-69
2023/12/16 03:53:15;;;;;;;0.77;0.77;;;11.70;70.20;;;;;;5091905;28;20039;-70
2023/12/16 03:55:40;;;;;;;0.50;0.50;;;11.70;70.20;;;;;;5091624;28;20055;-69
2023/12/16 03:58:06;;;;;;;0.60;0.60;;;11.70;70.30;;;;;;5073615;28;20375;-70
2023/12/16 04:00:32;;;;;;;0.88;0.82;;;11.70;70.20;;;;;;5091857;28;20051;-69
2023/12/16 04:02:57;;;;;;;0.60;0.60;;;11.70;70.00;;;;;;5091583;28;20032;-70
2023/12/16 04:05:23;;;;;;;0.60;0.60;;;11.70;70.00;;;;;;5091275;28;20020;-70
2023/12/16 04:07:48;;;;;;;1.55;1.45;;;11.70;70.20;;;;;;5090891;28;20032;-69
2023/12/16 04:10:14;;;;;;;0.52;0.52;;;11.70;70.10;;;;;;5092859;28;20036;-71
2023/12/16 04:12:39;;;;;;;0.65;0.65;;;11.70;70.20;;;;;;5085709;28;20047;-72
2023/12/16 04:15:06;;;;;;;0.60;0.60;;;11.70;70.10;;;;;;5104312;28;20032;-72
2023/12/16 04:17:31;;;;;;;0.70;0.70;;;11.70;69.90;;;;;;5106455;28;20058;-71
2023/12/16 04:19:57;;;;;;;0.75;0.75;;;11.70;69.90;;;;;;5105118;28;20024;-71
2023/12/16 04:22:22;;;;;;;0.93;0.93;;;11.70;69.60;;;;;;5103985;28;20111;-71
2023/12/16 04:24:50;;;;;;;0.40;0.40;;;11.70;69.80;;;;;;5103784;28;20030;-71
2023/12/16 04:27:15;;;;;;;0.50;0.50;;;11.70;70.00;;;;;;5101943;28;20028;-72
2023/12/16 04:29:41;;;;;;;0.50;0.50;;;11.70;70.00;;;;;;5100560;28;20031;-71
2023/12/16 04:32:06;;;;;;;0.50;0.50;;;11.70;69.90;;;;;;5102865;28;20036;-71
2023/12/16 04:34:32;;;;;;;0.65;0.65;;;11.70;70.10;;;;;;5099679;28;20532;-71
2023/12/16 04:36:57;;;;;;;0.57;0.57;;;11.70;69.60;;;;;;5100423;28;20025;-71
2023/12/16 04:39:23;;;;;;;1.02;1.02;;;11.70;70.00;;;;;;5084730;28;20034;-72
2023/12/16 04:41:48;;;;;;;0.50;0.50;;;11.70;69.70;;;;;;5103905;28;20028;-72
2023/12/16 04:44:14;;;;;;;0.68;0.68;;;11.70;69.90;;;;;;5101706;28;20030;-72
2023/12/16 04:46:39;;;;;;;2.28;1.77;;;11.70;69.70;;;;;;5100864;28;20036;-72
2023/12/16 04:49:05;;;;;;;1.50;1.00;;;11.70;69.70;;;;;;5085011;28;20028;-71
2023/12/16 04:51:30;;;;;;;0.60;0.60;;;11.70;69.80;;;;;;5100157;28;20051;-71
2023/12/16 04:53:56;;;;;;;2.08;1.67;;;11.70;69.50;;;;;;5101000;28;20032;-72
2023/12/16 04:56:22;;;;;;;0.50;0.50;;;11.70;69.40;;;;;;5100550;28;20081;-72
2023/12/16 04:58:47;;;;;;;0.82;0.82;;;11.70;69.80;;;;;;5100381;28;20024;-72
2023/12/16 05:01:13;;;;;;;0.75;0.75;;;11.70;69.90;;;;;;5100593;28;20043;-72
2023/12/16 05:03:40;;;;;;;0.40;0.40;;;11.70;70.00;;;;;;5100628;28;20062;-72
2023/12/16 05:06:06;;;;;;;0.55;0.55;;;11.70;69.90;;;;;;5101942;28;20035;-72
2023/12/16 05:08:32;;;;;;;0.50;0.50;;;11.70;69.90;;;;;;5100914;28;20024;-71
2023/12/16 05:10:57;;;;;;;0.50;0.50;;;11.70;69.80;;;;;;5101055;28;20053;-71
2023/12/16 05:13:23;;;;;;;0.50;0.50;;;11.70;69.90;;;;;;5087943;28;20043;-71
2023/12/16 05:15:50;;;;;;;1.40;1.30;;;11.80;69.80;;;;;;5081375;28;20438;-72
2023/12/16 05:18:16;;;;;;;0.90;0.90;;;11.80;69.90;;;;;;5081203;28;20476;-71
2023/12/16 05:20:41;;;;;;;2.15;1.10;;;11.70;69.80;;;;;;5078860;28;20036;-70
2023/12/16 05:23:07;;;;;;;0.50;0.50;;;11.70;69.60;;;;;;5074108;28;20095;-70
2023/12/16 05:25:32;;;;;;;0.65;0.65;;;11.70;69.80;;;;;;5074198;28;20047;-69
2023/12/16 05:27:58;;;;;;;0.60;0.60;;;11.70;69.50;;;;;;5074057;28;20113;-69
2023/12/16 05:30:24;;;;;;;0.57;0.57;;;11.70;69.60;;;;;;5074214;28;20029;-71
2023/12/16 05:32:50;;;;;;;0.88;0.88;;;11.70;69.20;;;;;;5074088;28;20039;-69
2023/12/16 05:35:15;;;;;;;0.82;0.82;;;11.60;68.90;;;;;;5073751;28;20039;-70
2023/12/16 05:37:41;;;;;;;0.50;0.50;;;11.50;68.90;;;;;;5055859;28;20114;-69
2023/12/16 05:40:07;;;;;;;0.60;0.60;;;11.40;68.80;;;;;;5073785;28;20025;-69
2023/12/16 05:42:32;;;;;;;0.40;0.40;;;11.30;68.40;;;;;;5074201;28;20041;-70
2023/12/16 05:44:58;;;;;;;0.73;0.73;;;11.30;68.40;;;;;;5073842;28;20074;-71
2023/12/16 05:47:23;;;;;;;0.57;0.57;;;11.20;68.10;;;;;;5056149;28;20525;-70
2023/12/16 05:49:50;;;;;;;1.35;1.25;;;11.10;68.00;;;;;;5073679;28;20095;-70
2023/12/16 05:52:15;;;;;;;0.70;0.70;;;11.00;67.80;;;;;;5074246;28;20106;-69
2023/12/16 05:54:41;;;;;;;0.50;0.50;;;10.90;67.80;;;;;;5055461;28;20028;-69
2023/12/16 05:57:06;;;;;;;1.15;0.90;;;10.80;67.60;;;;;;5055819;28;20078;-69
2023/12/16 05:59:34;;;;;;;1.30;1.20;;;10.70;67.50;;;;;;5073549;28;20095;-70
2023/12/16 06:02:00;;;;;;;0.70;0.70;;;10.60;67.90;;;;;;5074146;28;20040;-69
2023/12/16 06:04:25;;;;;;;0.50;0.50;;;10.50;67.90;;;;;;5073670;28;20164;-69
2023/12/16 06:06:51;;;;;;;0.43;0.43;;;10.50;68.00;;;;;;5073653;28;20051;-68
2023/12/16 06:09:17;;;;;;;0.57;0.57;;;10.50;68.10;;;;;;5073389;28;20495;-69
2023/12/16 06:11:42;;;;;;;0.60;0.60;;;10.40;67.80;;;;;;5073065;28;20040;-70
2023/12/16 06:14:08;;;;;;;0.57;0.57;;;10.30;67.60;;;;;;5092454;28;20039;-70
2023/12/16 06:16:33;;;;;;;0.57;0.57;;;10.30;67.80;;;;;;5075687;28;20065;-69
2023/12/16 06:18:59;;;;;;;0.68;0.68;;;10.30;67.90;;;;;;5093559;28;20039;-69
2023/12/16 06:21:25;;;;;;;0.50;0.50;;;10.20;67.80;;;;;;5093637;28;20032;-70
2023/12/16 06:23:50;;;;;;;0.50;0.50;;;10.20;68.00;;;;;;5093276;28;20496;-69
2023/12/16 06:26:16;;;;;;;0.80;0.80;;;10.20;67.70;;;;;;5093374;28;20039;-70
2023/12/16 06:28:42;;;;;;;1.40;1.30;;;10.10;67.80;;;;;;5093277;28;20035;-69
2023/12/16 06:31:14;;;;;;;0.82;0.82;;;10.10;68.10;;;;;;5092658;28;20037;-70
2023/12/16 06:33:40;;;;;;;1.58;1.48;;;10.10;68.20;;;;;;5093134;28;20077;-70
2023/12/16 06:36:06;;;;;;;1.27;1.17;;;10.10;68.30;;;;;;5093272;28;20032;-70
2023/12/16 06:38:31;;;;;;;0.45;0.45;;;10.00;68.40;;;;;;5092899;28;20027;-70
2023/12/16 06:40:56;;;;;;;0.50;0.50;;;10.00;68.30;;;;;;5079943;28;20509;-70
2023/12/16 06:43:22;;;;;;;0.60;0.60;;;9.90;68.10;;;;;;5074744;28;20103;-69
2023/12/16 06:45:48;;;;;;;1.05;0.95;;;9.90;67.90;;;;;;5084088;28;20032;-71
2023/12/16 06:48:13;;;;;;;0.63;0.63;;;9.90;67.80;;;;;;5080351;28;20051;-70
2023/12/16 06:50:38;;;;;;;0.60;0.60;;;9.90;68.00;;;;;;5093158;28;20032;-71
2023/12/16 06:53:04;;;;;;;0.60;0.60;;;9.80;67.80;;;;;;5082488;28;20036;-69
2023/12/16 06:55:29;;;;;;;0.63;0.63;;;9.80;68.00;;;;;;5073487;28;20039;-70
2023/12/16 06:57:55;;;;;;;0.47;0.47;;;9.70;68.00;;;;;;5078383;28;20467;-69
2023/12/16 07:00:20;;;;;;;0.80;0.80;;;9.80;68.10;;;;;;5090967;28;20035;-69
2023/12/16 07:02:46;;;;;;;12.05;1.40;;;9.80;68.20;;;;;;5082041;28;20511;-69
2023/12/16 07:05:11;;;;;;;0.50;0.50;;;9.70;68.50;;;;;;5070969;28;20115;-70
2023/12/16 07:07:37;;;;;;;1.33;1.05;;;9.70;68.60;;;;;;5072013;28;20103;-70
2023/12/16 07:10:06;;;;;;;1.65;1.02;;;9.80;68.50;;;;;;5072124;28;20024;-69
2023/12/16 07:12:31;;;;;;;0.88;0.85;;;9.80;68.90;;;;;;5077564;28;20051;-70
2023/12/16 07:14:57;;;;;;;0.50;0.50;;;9.90;69.30;;;;;;5082477;28;20032;-69
2023/12/16 07:17:23;;;;;;;0.85;0.85;;;9.90;69.50;;;;;;5072368;28;20036;-70
2023/12/16 07:19:49;;;;;;;0.40;0.40;;;10.00;69.30;;;;;;5070478;28;20021;-69
2023/12/16 07:22:17;;;;;;;0.50;0.50;;;10.00;69.30;;;;;;5071814;28;20041;-70
2023/12/16 07:24:43;;;;;;;0.60;0.60;;;10.00;68.70;;;;;;5071649;28;20020;-71
2023/12/16 07:27:09;;;;;;;0.50;0.50;;;10.00;68.40;;;;;;5077159;28;20071;-69
2023/12/16 07:29:35;;;;;;;0.40;0.40;;;10.00;68.30;;;;;;5085231;28;20401;-69
2023/12/16 07:32:00;;;;;;;0.60;0.60;;;10.00;68.30;;;;;;5092237;28;20090;-70
2023/12/16 07:34:26;;;;;;;0.50;0.50;;;9.90;68.30;;;;;;5071697;28;20035;-69
2023/12/16 07:36:52;;;;;;;0.60;0.60;;;9.90;68.30;;;;;;5073963;28;20041;-69
2023/12/16 07:39:18;;;;;;;0.50;0.50;;;9.90;68.00;;;;;;5091084;28;20455;-70
2023/12/16 07:41:43;;;;;;;0.40;0.40;;;9.90;68.20;;;;;;5091021;28;20108;-70
2023/12/16 07:44:09;;;;;;;0.57;0.57;;;9.80;68.10;;;;;;5092290;28;20035;-69
2023/12/16 07:46:34;;;;;;;0.50;0.50;;;9.80;68.40;;;;;;5112274;28;20103;-70
2023/12/16 07:49:00;;;;;;;0.40;0.40;;;9.90;68.70;;;;;;5111964;28;20028;-70
2023/12/16 07:51:25;;;;;;;0.50;0.50;;;10.00;69.20;;;;;;5095036;28;20040;-70
2023/12/16 07:53:52;;;;;;;0.43;0.43;;;10.10;69.70;;;;;;5091484;28;20495;-70
2023/12/16 07:56:22;;;;;;;0.50;0.50;;;10.20;70.00;;;;;;5072033;28;20182;-71
2023/12/16 07:58:51;;;;;;;0.50;0.50;;;10.40;70.20;;;;;;5086054;28;20574;-71
2023/12/16 08:01:18;;;;;;;1.30;1.23;;;10.50;70.40;;;;;;5084200;28;20028;-70
2023/12/16 08:03:44;;;;;;;0.50;0.50;;;10.70;70.50;;;;;;5091716;28;20048;-69
2023/12/16 08:06:09;;;;;;;0.80;0.77;;;10.80;70.60;;;;;;5091529;28;20082;-71
2023/12/16 08:08:36;;;;;;;0.50;0.50;;;11.00;70.60;;;;;;5091118;28;20481;-70
2023/12/16 08:11:01;;;;;;;1.08;0.98;;;11.30;70.80;;;;;;5084361;28;20032;-70
2023/12/16 08:13:27;;;;;;;0.70;0.70;;;11.40;70.80;;;;;;5071161;28;20021;-70
2023/12/16 08:15:52;;;;;;;0.40;0.40;;;11.60;70.70;;;;;;5071064;28;20412;-70
2023/12/16 08:18:18;;;;;;;0.50;0.50;;;11.70;70.30;;;;;;5091345;28;20028;-70
2023/12/16 08:20:43;;;;;;;0.40;0.40;;;11.80;70.00;;;;;;5091313;28;20035;-76
2023/12/16 08:23:09;;;;;;;0.40;0.40;;;11.80;70.50;;;;;;5088302;28;20483;-70
2023/12/16 08:25:37;;;;;;;1.27;1.15;;;11.90;70.50;;;;;;5071507;28;20494;-70
2023/12/16 08:28:03;;;;;;;1.60;1.50;;;12.00;70.00;;;;;;5070380;28;20078;-70
2023/12/16 08:30:28;;;;;;;0.65;0.65;;;12.00;70.00;;;;;;5089468;28;20028;-70
2023/12/16 08:32:54;;;;;;;0.90;0.90;;;12.00;69.70;;;;;;5089018;28;20032;-70
2023/12/16 08:35:19;;;;;;;0.80;0.80;;;12.10;69.80;;;;;;5089288;28;20425;-71
2023/12/16 08:37:45;;;;;;;0.50;0.50;;;12.20;69.70;;;;;;5089085;28;20024;-70
2023/12/16 08:40:11;;;;;;;0.75;0.75;;;12.20;70.10;;;;;;5089345;28;20032;-70
2023/12/16 08:42:37;;;;;;;0.40;0.40;;;12.30;69.90;;;;;;5070797;28;20472;-70
2023/12/16 08:45:03;;;;;;;0.50;0.50;;;12.40;70.00;;;;;;5070053;28;20021;-70
2023/12/16 08:47:29;;;;;;;0.50;0.50;;;12.50;69.90;;;;;;5070425;28;20032;-70
2023/12/16 08:49:55;;;;;;;0.40;0.40;;;12.60;69.70;;;;;;5070371;28;20361;-70
2023/12/16 08:52:20;;;;;;;0.60;0.60;;;12.70;69.60;;;;;;5077717;28;20084;-72
2023/12/16 08:54:46;;;;;;;0.50;0.50;;;12.70;69.00;;;;;;5078180;28;20025;-71
2023/12/16 08:57:11;;;;;;;2.80;1.50;;;12.70;69.20;;;;;;5082468;28;20589;-71
2023/12/16 08:59:37;;;;;;;2.15;1.70;;;12.70;69.00;;;;;;5082544;28;20027;-71
2023/12/16 09:02:05;;;;;;;0.52;0.52;;;12.80;68.50;;;;;;5083122;28;20044;-71
2023/12/16 09:04:30;;;;;;;1.27;1.17;;;12.90;69.50;;;;;;5081554;28;20464;-72
2023/12/16 09:06:56;;;;;;;0.50;0.50;;;13.20;70.70;;;;;;5099407;28;20038;-72
2023/12/16 09:09:22;;;;;;;0.60;0.60;;;13.40;71.30;;;;;;5093968;28;20055;-72
2023/12/16 09:11:48;;;;;;;0.50;0.50;;;13.80;71.90;;;;;;5093713;28;20036;-72
2023/12/16 09:14:13;;;;;;;0.50;0.50;;;14.20;71.80;;;;;;5095648;28;20539;-72
2023/12/16 09:16:39;;;;;;;1.55;1.45;;;14.40;70.80;;;;;;5092099;28;20373;-72
2023/12/16 09:19:07;;;;;;;1.55;1.45;;;14.60;71.60;;;;;;5088491;28;20464;-72
2023/12/16 09:21:33;;;;;;;3.97;2.03;;;15.00;70.30;;;;;;5088991;28;20542;-72
2023/12/16 09:23:58;;;;;;;0.50;0.50;;;15.20;70.90;;;;;;5090538;28;20036;-72
2023/12/16 09:26:24;;;;;;;0.70;0.70;;;15.50;71.00;;;;;;5085947;28;20047;-72
2023/12/16 09:28:49;;;;;;;0.90;0.88;;;15.80;71.10;;;;;;5085760;28;20395;-72
2023/12/16 09:31:16;;;;;;;0.70;0.70;;;16.10;71.10;;;;;;5084907;28;20028;-72
2023/12/16 09:33:42;;;;;;;4.65;2.47;;;16.20;72.10;;;;;;5087216;28;20013;-72
2023/12/16 09:36:14;;;;;;;0.50;0.50;;;16.50;70.10;;;;;;5067550;28;20113;-72
2023/12/16 09:38:42;;;;;;;1.45;1.20;;;16.50;70.20;;;;;;5086691;28;20042;-72
2023/12/16 09:41:23;;;;;;;9.18;1.40;;;16.60;69.70;;;;;;5089666;28;20043;-71
2023/12/16 09:43:52;;;;;;;0.60;0.60;;;16.60;68.60;;;;;;5082641;28;20103;-71
2023/12/16 09:46:23;;;;;;;0.60;0.60;;;16.50;68.80;;;;;;5091740;28;20062;-71
2023/12/16 09:48:49;;;;;;;1.90;1.80;;;16.40;68.90;;;;;;5076622;28;20031;-72
2023/12/16 09:51:15;;;;;;;3.45;1.88;;;16.40;67.60;;;;;;5076155;28;20060;-71
2023/12/16 09:53:40;;;;;;;0.77;0.77;;;16.20;66.60;;;;;;5087247;28;20694;-71
2023/12/16 09:56:07;;;;;;;1.20;1.10;;;16.10;68.20;;;;;;5092840;28;20028;-71
2023/12/16 09:58:34;;;;;;;0.73;0.73;;;16.00;67.90;;;;;;5093250;28;20034;-70
2023/12/16 10:01:02;;;;;;;0.43;0.43;;;15.90;66.70;;;;;;5085201;28;20028;-70
2023/12/16 10:03:29;;;;;;;0.55;0.55;;;15.80;66.50;;;;;;5079088;28;20024;-71
2023/12/16 10:05:55;;;;;;;0.50;0.50;;;15.70;67.50;;;;;;5093925;28;20484;-71
2023/12/16 10:08:20;;;;;;;0.63;0.63;;;15.70;67.40;;;;;;5093287;28;20036;-71
2023/12/16 10:10:46;;;;;;;1.35;1.25;;;15.60;67.50;;;;;;5093389;28;20043;-71
2023/12/16 10:13:11;;;;;;;1.02;0.95;;;15.50;67.20;;;;;;5083050;28;20154;-71
2023/12/16 10:15:37;;;;;;;0.50;0.50;;;15.40;66.70;;;;;;5082468;28;20043;-71
2023/12/16 10:18:04;;;;;;;0.47;0.47;;;15.30;67.50;;;;;;5088245;28;20039;-71
2023/12/16 10:20:30;;;;;;;0.50;0.50;;;15.30;67.90;;;;;;5090419;28;20031;-71
2023/12/16 10:23:00;;;;;;;1.20;1.13;;;15.30;68.20;;;;;;5079447;28;20012;-71
2023/12/16 10:25:26;;;;;;;0.80;0.80;;;15.30;68.10;;;;;;5081388;28;20048;-72
2023/12/16 10:27:59;;;;;;;1.77;0.95;;;15.30;66.60;;;;;;5078326;28;20063;-70
2023/12/16 10:30:25;;;;;;;0.50;0.50;;;15.30;65.80;;;;;;5078073;28;20028;-70
2023/12/16 10:32:51;;;;;;;0.68;0.68;;;15.40;66.70;;;;;;5085628;28;20027;-70
2023/12/16 10:35:16;;;;;;;0.73;0.63;;;15.40;66.30;;;;;;5081323;28;20395;-70
2023/12/16 10:37:49;;;;;;;0.43;0.43;;;15.50;68.60;;;;;;5083429;28;20044;-70
2023/12/16 10:40:15;;;;;;;1.40;1.10;;;15.70;68.60;;;;;;5078483;28;20047;-70
2023/12/16 10:42:41;;;;;;;0.80;0.80;;;15.80;68.40;;;;;;5060309;28;20479;-70
2023/12/16 10:45:09;;;;;;;0.75;0.75;;;15.80;67.70;;;;;;5075986;28;20043;-70
2023/12/16 10:47:37;;;;;;;1.77;1.23;;;16.00;68.80;;;;;;5075767;28;20036;-70
2023/12/16 10:50:03;;;;;;;0.50;0.50;;;16.00;66.80;;;;;;5054727;28;20020;-71
2023/12/16 10:52:42;;;;;;;0.60;0.60;;;15.90;67.50;;;;;;5074403;28;20376;-70
2023/12/16 10:55:16;;;;;;;0.88;0.88;;;16.00;66.50;;;;;;5074269;28;20024;-70
2023/12/16 10:57:47;;;;;;;0.60;0.60;;;16.00;68.20;;;;;;5084092;28;20094;-70
2023/12/16 11:00:23;;;;;;;0.52;0.52;;;16.00;67.70;;;;;;5076939;28;20017;-70
2023/12/16 11:03:07;;;;;;;0.50;0.50;;;16.00;67.70;;;;;;5059894;28;20120;-71
2023/12/16 11:05:40;;;;;;;0.82;0.82;;;16.00;67.20;;;;;;5090254;28;20121;-72
2023/12/16 11:08:06;;;;;;;0.40;0.40;;;16.10;68.80;;;;;;5075504;28;20492;-71
2023/12/16 11:10:32;;;;;;;0.60;0.60;;;16.20;68.30;;;;;;5079338;28;20034;-70
2023/12/16 11:13:02;;;;;;;0.68;0.68;;;16.20;68.20;;;;;;5083119;28;20077;-70
2023/12/16 11:15:30;;;;;;;0.93;0.93;;;16.20;67.90;;;;;;5073182;28;20028;-70
2023/12/16 11:18:17;;;;;;;0.40;0.40;;;16.20;68.00;;;;;;5074148;28;20023;-71
2023/12/16 11:20:45;;;;;;;0.50;0.50;;;16.20;67.60;;;;;;5070988;28;20071;-70
2023/12/16 11:23:11;;;;;;;0.50;0.50;;;16.20;68.10;;;;;;5082282;28;20039;-70
2023/12/16 11:25:37;;;;;;;15.57;0.90;;;16.20;68.20;;;;;;5089260;28;20064;-70
2023/12/16 11:28:04;;;;;;;1.48;1.25;;;16.20;67.40;;;;;;5076796;28;20105;-70
2023/12/16 11:30:34;;;;;;;0.50;0.50;;;16.10;66.00;;;;;;5071029;28;20354;-71
2023/12/16 11:33:00;;;;;;;0.50;0.50;;;16.10;66.90;;;;;;5071984;28;20116;-71
2023/12/16 11:35:45;;;;;;;0.52;0.52;;;16.00;66.00;;;;;;5090937;28;20107;-70
2023/12/16 11:38:40;;;;;;;0.60;0.60;;;15.90;64.90;;;;;;5081153;28;20020;-70
2023/12/16 11:41:06;;;;;;;8.38;2.25;;;15.90;66.10;;;;;;5067862;28;20430;-71
2023/12/16 11:43:51;;;;;;;0.40;0.40;;;15.90;66.30;;;;;;5089649;28;20061;-70
2023/12/16 11:46:41;;;;;;;0.50;0.50;;;16.00;66.50;;;;;;5088695;28;20063;-71
2023/12/16 11:49:14;;;;;;;0.40;0.40;;;16.10;66.90;;;;;;5074844;28;20127;-71
2023/12/16 11:51:40;;;;;;;0.80;0.80;;;16.10;67.50;;;;;;5087497;28;20111;-70
2023/12/16 11:54:08;;;;;;;0.40;0.40;;;16.00;67.70;;;;;;5088472;28;20059;-70
2023/12/16 11:56:35;;;;;;;3.17;1.30;;;16.00;67.80;;;;;;5071755;28;20047;-70
2023/12/16 11:59:02;;;;;;;0.50;0.50;;;16.00;67.80;;;;;;5077781;28;20032;-72
2023/12/16 12:01:29;;;;;;;7.32;2.17;;;16.00;66.20;;;;;;5087942;28;20024;-70
2023/12/16 12:03:55;;;;;;;0.70;0.70;;;15.90;66.60;;;;;;5087637;28;20521;-71
2023/12/16 12:06:22;;;;;;;0.50;0.50;;;15.90;67.40;;;;;;5084798;28;20525;-71
2023/12/16 12:08:47;;;;;;;1.15;1.15;;;15.80;67.80;;;;;;5091184;28;20415;-70
2023/12/16 12:11:16;;;;;;;0.80;0.70;;;15.80;67.40;;;;;;5089812;28;20146;-70
2023/12/16 12:13:52;;;;;;;0.75;0.75;;;15.80;67.40;;;;;;5088551;28;20024;-70
2023/12/16 12:16:18;;;;;;;1.48;1.27;;;15.70;67.60;;;;;;5088037;28;20481;-70
2023/12/16 12:18:44;;;;;;;0.50;0.50;;;15.70;67.40;;;;;;5086167;28;20059;-70
2023/12/16 12:21:10;;;;;;;1.27;1.17;;;15.60;66.80;;;;;;5084852;28;20530;-71
2023/12/16 12:23:37;;;;;;;0.95;0.95;;;15.50;67.40;;;;;;5086458;28;20050;-71
2023/12/16 12:26:03;;;;;;;0.65;0.65;;;15.50;67.90;;;;;;5091544;28;20039;-71
2023/12/16 12:28:29;;;;;;;1.35;0.95;;;15.50;68.10;;;;;;5091862;28;20030;-71
2023/12/16 12:31:02;;;;;;;0.50;0.50;;;15.40;67.80;;;;;;5090571;28;20456;-71
2023/12/16 12:33:28;;;;;;;0.50;0.50;;;15.40;67.00;;;;;;5091817;28;20487;-70
2023/12/16 12:35:54;;;;;;;0.70;0.70;;;15.30;67.20;;;;;;5091372;28;20043;-70
2023/12/16 12:38:19;;;;;;;1.98;1.58;;;15.30;66.60;;;;;;5091023;28;20115;-70
2023/12/16 12:41:06;;;;;;;0.50;0.50;;;15.30;67.20;;;;;;5073250;28;20042;-71
2023/12/16 12:43:33;;;;;;;0.47;0.47;;;15.20;67.70;;;;;;5091345;28;20021;-70
2023/12/16 12:46:19;;;;;;;0.65;0.65;;;15.20;66.70;;;;;;5091354;28;20036;-71